Terminal Aerodrome Forecast
Issued by NWS Cleveland, OH

Home | Current Version | Previous Version | Text Only | Print | Product List | Glossary On
Versions: 1 2 3 4 5 6 7 8 9 10 11 12 13 14
792
FTUS41 KCLE 291155
TAFMFD
TAF
KMFD 291155Z 2912/3012 18005KT P6SM SCT100 BKN250
     FM291500 20010G18KT P6SM SCT050 BKN250
     FM292200 22010G20KT P6SM VCTS SCT035 BKN050CB
     FM300100 24006KT P6SM BKN100
     FM300800 24004KT 3SM BR SCT100=

USA.gov is the U.S. government's official web portal to all federal, state and local government web resources and services.